Theresa, Wisconsin
Current Conditions -  °F | °C
As of 2:55 PM on Sunday 23 Nov 2014 (Local Time) from KUNU Reporting Station
Drizzle Drizzle  
Wind Chill: 44°   Ceiling: 400
Heat Index: 46°   Visibility: 2.5mi
Dew Point: 46°   Wind: 6mph
Humidity: 98%   Direction: 130°SE
Pressure: 29.46"   Gusts: NA
Location:  43.52°N, 88.45°W
Report Text: KUNU 232055Z AUTO 13005KT 2 1/2SM DZ OVC004 08/08 A2946 RMK AO2 P0006 60017 T00800077
Loading
Personal Weather Stations






























Interactive Weather Map New forecast layout! Learn more

10-Day Weather Forecast

Advertisements
Track Severe Weather on mobile